Time;durP1;ratioP1;P1;durP2;ratioP2;P2;SDS_P1;SDS_P2;PMS_P1;PMS_P2;Temp;Humidity;BMP_temperature;BMP_pressure;BME280_temperature;BME280_humidity;BME280_pressure;Samples;Min_cycle;Max_cycle;Signal;HPM_P1;HPM_P2
2021/07/13 00:01:21;;;;;;;5.30;4.80;;;21.00;1.00;;;;;;5129430;27;20610;-57
2021/07/13 00:03:48;;;;;;;5.50;5.07;;;21.00;1.00;;;;;;5112961;27;20201;-58
2021/07/13 00:06:14;;;;;;;5.67;5.27;;;21.00;1.00;;;;;;5130436;27;20189;-57
2021/07/13 00:08:40;;;;;;;5.87;5.43;;;20.90;1.00;;;;;;5130499;27;20574;-57
2021/07/13 00:11:05;;;;;;;5.60;5.10;;;21.00;1.00;;;;;;5127606;27;20434;-58
2021/07/13 00:13:31;;;;;;;6.03;5.50;;;20.90;1.00;;;;;;5109919;27;20450;-57
2021/07/13 00:15:56;;;;;;;6.90;5.43;;;20.90;1.00;;;;;;5130901;27;20182;-57
2021/07/13 00:18:22;;;;;;;7.50;5.30;;;20.80;1.00;;;;;;5129869;27;20208;-57
2021/07/13 00:20:48;;;;;;;5.80;5.40;;;20.80;1.00;;;;;;5129816;27;20201;-57
2021/07/13 00:23:13;;;;;;;5.33;4.93;;;20.80;1.00;;;;;;5111471;27;20200;-57
2021/07/13 00:25:39;;;;;;;5.50;5.10;;;20.70;1.00;;;;;;5128528;27;20185;-57
2021/07/13 00:28:05;;;;;;;6.87;5.90;;;20.70;1.00;;;;;;5129888;27;20251;-57
2021/07/13 00:30:31;;;;;;;5.23;4.80;;;20.60;1.00;;;;;;5130660;27;20497;-57
2021/07/13 00:32:57;;;;;;;6.43;5.33;;;20.60;1.00;;;;;;5131302;27;21113;-57
2021/07/13 00:35:23;;;;;;;5.77;5.30;;;20.60;1.00;;;;;;5131144;27;20173;-58
2021/07/13 00:37:48;;;;;;;5.23;4.70;;;20.50;1.00;;;;;;5130811;27;20173;-59
2021/07/13 00:40:17;;;;;;;7.53;5.40;;;20.50;1.00;;;;;;5129121;27;20454;-57
2021/07/13 00:42:45;;;;;;;5.97;5.47;;;20.40;1.00;;;;;;5129836;27;20181;-58
2021/07/13 00:45:11;;;;;;;8.17;5.43;;;20.50;1.00;;;;;;5131397;27;20451;-57
2021/07/13 00:47:37;;;;;;;5.80;5.30;;;20.50;1.00;;;;;;5128335;27;20942;-57
2021/07/13 00:50:04;;;;;;;5.60;5.10;;;20.40;1.00;;;;;;5130564;27;20239;-57
2021/07/13 00:52:29;;;;;;;5.70;5.30;;;20.40;1.00;;;;;;5129200;27;20444;-57
2021/07/13 00:54:57;;;;;;;5.33;4.93;;;20.40;1.00;;;;;;5131143;27;20413;-56
2021/07/13 00:57:23;;;;;;;5.30;4.83;;;20.40;1.00;;;;;;5130442;27;20169;-58
2021/07/13 00:59:48;;;;;;;6.10;5.20;;;20.30;1.00;;;;;;5130451;27;20872;-58
2021/07/13 01:02:16;;;;;;;6.47;5.90;;;20.40;1.00;;;;;;5130898;27;20204;-57
2021/07/13 01:04:50;;;;;;;8.30;5.20;;;20.40;1.00;;;;;;5131131;27;20188;-57
2021/07/13 01:08:00;;;;;;;5.00;4.60;;;20.30;1.00;;;;;;5133429;27;20787;-58
2021/07/13 01:10:44;;;;;;;5.50;5.00;;;20.30;1.00;;;;;;5133832;27;20445;-57
2021/07/13 01:13:31;;;;;;;6.00;5.50;;;20.20;1.00;;;;;;5151001;27;20437;-59
2021/07/13 01:16:37;;;;;;;5.20;4.77;;;20.20;1.00;;;;;;5138985;27;20435;-57
2021/07/13 01:19:33;;;;;;;5.50;4.97;;;20.10;1.00;;;;;;5128529;27;20483;-57
2021/07/13 01:22:10;;;;;;;5.83;5.33;;;20.10;1.00;;;;;;5132809;27;20446;-57
2021/07/13 01:24:53;;;;;;;5.40;5.00;;;20.10;1.00;;;;;;5132890;27;20529;-58
2021/07/13 01:27:41;;;;;;;5.50;5.00;;;20.10;1.00;;;;;;5115847;27;20439;-57
2021/07/13 01:30:10;;;;;;;5.00;4.60;;;20.10;1.00;;;;;;5133460;27;20933;-56
2021/07/13 01:32:37;;;;;;;5.63;5.20;;;20.10;1.00;;;;;;5132240;27;20435;-57
2021/07/13 01:35:07;;;;;;;5.40;5.00;;;20.00;1.00;;;;;;5133324;27;20923;-58
2021/07/13 01:37:37;;;;;;;6.03;5.53;;;20.10;1.00;;;;;;5115503;27;20439;-58
2021/07/13 01:40:07;;;;;;;5.67;5.17;;;20.00;1.00;;;;;;5145755;27;20474;-57
2021/07/13 01:42:33;;;;;;;6.07;5.57;;;19.90;1.00;;;;;;5132865;27;20545;-57
2021/07/13 01:45:00;;;;;;;6.13;5.20;;;19.90;1.00;;;;;;5133867;27;20446;-57
2021/07/13 01:47:26;;;;;;;7.93;5.27;;;19.90;1.00;;;;;;5132694;27;20435;-58
2021/07/13 01:49:52;;;;;;;5.77;5.27;;;19.80;1.00;;;;;;5136649;27;20467;-58
2021/07/13 01:52:19;;;;;;;5.43;5.00;;;19.90;1.00;;;;;;5132475;27;20458;-56
2021/07/13 01:54:45;;;;;;;5.40;5.00;;;19.90;1.00;;;;;;5133738;27;20423;-57
2021/07/13 01:57:12;;;;;;;5.17;4.57;;;19.80;1.00;;;;;;5133369;27;20443;-57
2021/07/13 01:59:40;;;;;;;5.20;4.90;;;19.90;1.00;;;;;;5133657;27;20993;-57
2021/07/13 02:02:08;;;;;;;5.63;5.17;;;19.80;1.00;;;;;;5131167;27;20779;-57
2021/07/13 02:04:36;;;;;;;5.40;4.90;;;19.80;1.00;;;;;;5133033;27;20431;-57
2021/07/13 02:07:06;;;;;;;5.40;5.00;;;19.80;1.00;;;;;;5132788;27;20992;-58
2021/07/13 02:09:33;;;;;;;8.40;5.57;;;19.70;1.00;;;;;;5132375;27;20900;-57
2021/07/13 02:12:00;;;;;;;5.33;4.90;;;19.80;1.00;;;;;;5131664;27;20427;-58
2021/07/13 02:14:26;;;;;;;5.90;5.40;;;19.70;1.00;;;;;;5133976;27;20517;-58
2021/07/13 02:16:52;;;;;;;5.27;4.87;;;19.70;1.00;;;;;;5115194;27;20850;-58
2021/07/13 02:19:18;;;;;;;5.77;5.17;;;19.70;1.00;;;;;;5112480;27;20181;-58
2021/07/13 02:21:43;;;;;;;5.70;5.20;;;19.60;1.00;;;;;;5131024;27;20838;-59
2021/07/13 02:24:09;;;;;;;5.33;4.97;;;19.70;1.00;;;;;;5130883;27;20446;-58
2021/07/13 02:26:59;;;;;;;5.73;5.30;;;19.60;1.00;;;;;;5133165;27;20204;-57
2021/07/13 02:30:03;;;;;;;6.23;5.47;;;19.60;1.00;;;;;;5129759;27;20494;-57
2021/07/13 02:32:39;;;;;;;6.30;5.70;;;19.60;1.00;;;;;;5049336;28;20445;-58
2021/07/13 02:35:06;;;;;;;5.90;5.40;;;19.60;1.00;;;;;;5108031;27;20839;-56
2021/07/13 02:37:35;;;;;;;6.30;4.67;;;19.50;1.00;;;;;;5131598;27;20931;-57
2021/07/13 02:40:03;;;;;;;6.47;4.97;;;19.50;1.00;;;;;;5132212;27;20467;-57
2021/07/13 02:42:29;;;;;;;5.70;5.20;;;19.50;1.00;;;;;;5133551;27;21058;-57
2021/07/13 02:44:55;;;;;;;5.53;5.13;;;19.50;1.00;;;;;;5131604;27;20526;-58
2021/07/13 02:47:22;;;;;;;6.43;5.83;;;19.40;1.00;;;;;;5132579;27;20179;-58
2021/07/13 02:49:51;;;;;;;5.67;5.27;;;19.40;1.00;;;;;;5129768;27;20458;-57
2021/07/13 02:52:30;;;;;;;5.67;5.17;;;19.40;1.00;;;;;;5132232;27;20478;-58
2021/07/13 02:54:59;;;;;;;5.70;5.20;;;19.40;1.00;;;;;;5108908;27;20792;-59
2021/07/13 02:57:27;;;;;;;5.50;5.10;;;19.40;1.00;;;;;;5114061;27;20442;-58
2021/07/13 02:59:54;;;;;;;7.80;6.17;;;19.40;1.00;;;;;;5133189;27;20430;-57
2021/07/13 03:02:21;;;;;;;5.90;5.23;;;19.30;1.00;;;;;;5130845;27;20477;-57
2021/07/13 03:04:49;;;;;;;5.63;5.13;;;19.30;1.00;;;;;;5130666;27;20478;-57
2021/07/13 03:07:16;;;;;;;5.40;4.90;;;19.30;1.00;;;;;;5111084;27;20438;-58
2021/07/13 03:09:43;;;;;;;5.53;4.97;;;19.20;1.00;;;;;;5131473;27;20462;-56
2021/07/13 03:12:10;;;;;;;5.77;5.20;;;19.20;1.00;;;;;;5132961;27;20427;-57
2021/07/13 03:14:44;;;;;;;5.47;5.03;;;19.20;1.00;;;;;;5131939;27;20450;-57
2021/07/13 03:17:12;;;;;;;5.90;5.20;;;19.20;1.00;;;;;;5129699;27;20678;-57
2021/07/13 03:19:39;;;;;;;5.20;4.70;;;19.20;1.00;;;;;;5126989;27;20484;-57
2021/07/13 03:22:09;;;;;;;4.73;4.03;;;19.20;1.00;;;;;;5129988;27;20447;-57
2021/07/13 03:24:38;;;;;;;6.07;5.57;;;19.20;1.00;;;;;;5129310;27;20442;-57
2021/07/13 03:27:04;;;;;;;7.50;4.90;;;19.20;1.00;;;;;;5129408;27;21019;-60
2021/07/13 03:29:31;;;;;;;5.50;5.10;;;19.20;1.00;;;;;;5130107;27;20469;-58
2021/07/13 03:31:57;;;;;;;9.50;5.60;;;19.20;1.00;;;;;;5131271;27;20442;-58
2021/07/13 03:34:25;;;;;;;4.80;4.40;;;19.20;1.00;;;;;;5128449;27;20489;-57
2021/07/13 03:36:50;;;;;;;5.77;5.27;;;19.30;1.00;;;;;;5129020;27;20427;-58
2021/07/13 03:39:16;;;;;;;5.17;4.67;;;19.40;1.00;;;;;;5131149;27;20527;-58
2021/07/13 03:41:42;;;;;;;5.37;4.87;;;19.40;1.00;;;;;;5132029;27;20177;-58
2021/07/13 03:44:08;;;;;;;5.87;4.87;;;19.50;1.00;;;;;;5129451;27;20177;-57
2021/07/13 03:46:35;;;;;;;5.40;5.00;;;19.50;1.00;;;;;;5127952;27;20450;-58
2021/07/13 03:49:03;;;;;;;5.30;4.80;;;19.50;1.00;;;;;;5129361;27;20189;-56
2021/07/13 03:51:46;;;;;;;6.77;4.40;;;19.50;1.00;;;;;;5131373;27;20467;-57
2021/07/13 03:54:14;;;;;;;6.30;4.33;;;19.60;1.00;;;;;;5111530;27;20439;-58
2021/07/13 03:56:40;;;;;;;5.07;4.67;;;19.60;1.00;;;;;;5127534;27;20446;-56
2021/07/13 03:59:06;;;;;;;6.33;5.17;;;19.70;1.00;;;;;;5127649;27;20795;-57
2021/07/13 04:01:32;;;;;;;5.43;4.50;;;19.60;1.00;;;;;;5130719;27;20521;-59
2021/07/13 04:03:58;;;;;;;5.90;5.50;;;19.70;1.00;;;;;;5127226;27;20204;-56
2021/07/13 04:06:24;;;;;;;6.20;5.60;;;19.70;1.00;;;;;;5128639;27;20447;-58
2021/07/13 04:08:49;;;;;;;5.00;4.70;;;19.60;1.00;;;;;;5130941;27;20461;-62
2021/07/13 04:11:15;;;;;;;5.17;4.70;;;19.70;1.00;;;;;;5129777;27;20642;-56
2021/07/13 04:13:41;;;;;;;7.30;5.20;;;19.70;1.00;;;;;;5130481;27;20181;-56
2021/07/13 04:16:08;;;;;;;4.90;4.40;;;19.80;1.00;;;;;;5128550;27;20537;-56
2021/07/13 04:18:34;;;;;;;6.17;4.70;;;19.90;1.00;;;;;;5130184;27;20204;-56
2021/07/13 04:20:59;;;;;;;5.30;4.90;;;19.90;1.00;;;;;;5133156;27;20443;-57
2021/07/13 04:23:25;;;;;;;5.50;5.00;;;19.90;1.00;;;;;;5129809;27;20185;-56
2021/07/13 04:25:52;;;;;;;5.50;5.00;;;20.00;1.00;;;;;;5128253;27;20173;-55
2021/07/13 04:28:17;;;;;;;6.47;5.23;;;20.10;1.00;;;;;;5130533;27;20333;-57
2021/07/13 04:30:43;;;;;;;4.87;4.47;;;20.20;1.00;;;;;;5130494;27;20525;-58
2021/07/13 04:33:08;;;;;;;9.97;5.50;;;20.20;1.00;;;;;;5129363;27;20247;-57
2021/07/13 04:35:34;;;;;;;4.77;4.37;;;20.30;1.00;;;;;;5129839;27;20185;-57
2021/07/13 04:38:00;;;;;;;8.60;6.60;;;20.30;1.00;;;;;;5129960;27;20646;-56
2021/07/13 04:40:25;;;;;;;5.23;4.83;;;20.30;1.00;;;;;;5132384;27;20306;-58
2021/07/13 04:42:52;;;;;;;8.23;4.70;;;19.30;1.00;;;;;;5132075;27;20185;-58
2021/07/13 04:45:18;;;;;;;6.33;5.03;;;20.40;1.00;;;;;;5134104;27;20269;-56
2021/07/13 04:47:44;;;;;;;5.27;4.77;;;20.50;1.00;;;;;;5134137;27;20477;-59
2021/07/13 04:50:10;;;;;;;5.17;4.77;;;20.50;1.00;;;;;;5133706;27;20252;-58
2021/07/13 04:52:36;;;;;;;5.03;4.63;;;20.60;1.00;;;;;;5135260;27;20185;-57
2021/07/13 04:55:03;;;;;;;4.93;4.53;;;20.70;1.00;;;;;;5132879;27;20968;-59
2021/07/13 04:57:28;;;;;;;5.30;4.90;;;20.80;1.00;;;;;;5134281;27;20593;-60
2021/07/13 04:59:54;;;;;;;6.50;4.80;;;20.80;1.00;;;;;;5133440;27;20474;-59
2021/07/13 05:02:21;;;;;;;5.83;4.57;;;20.90;1.00;;;;;;5133674;27;20175;-58
2021/07/13 05:04:46;;;;;;;5.70;5.03;;;21.00;1.00;;;;;;5129950;27;20489;-58
2021/07/13 05:07:12;;;;;;;6.53;5.17;;;21.10;1.00;;;;;;5133665;27;20849;-59
2021/07/13 05:09:38;;;;;;;6.30;4.73;;;21.20;1.00;;;;;;5133617;27;20681;-59
2021/07/13 05:12:04;;;;;;;5.17;4.67;;;21.30;1.00;;;;;;5111897;27;20206;-59
2021/07/13 05:14:29;;;;;;;6.67;4.27;;;21.20;1.00;;;;;;5129414;27;20190;-58
2021/07/13 05:16:55;;;;;;;5.07;4.57;;;21.20;1.00;;;;;;5115990;27;20443;-58
2021/07/13 05:19:20;;;;;;;4.77;4.33;;;21.30;1.00;;;;;;5131396;27;20185;-57
2021/07/13 05:21:54;;;;;;;4.43;3.93;;;21.30;1.00;;;;;;5133758;27;20188;-58
2021/07/13 05:24:20;;;;;;;4.13;3.83;;;21.30;1.00;;;;;;5130072;27;20579;-58
2021/07/13 05:26:46;;;;;;;6.87;4.80;;;21.40;1.00;;;;;;5132170;27;20447;-59
2021/07/13 05:29:11;;;;;;;4.87;4.43;;;21.40;1.00;;;;;;5128334;27;20224;-58
2021/07/13 05:31:37;;;;;;;4.90;4.40;;;21.40;1.00;;;;;;5133963;27;20185;-59
2021/07/13 05:34:03;;;;;;;4.80;4.40;;;21.40;1.00;;;;;;5118759;27;20241;-60
2021/07/13 05:36:28;;;;;;;4.53;4.20;;;21.40;1.00;;;;;;5132931;27;20669;-57
2021/07/13 05:38:54;;;;;;;4.97;4.50;;;21.60;1.00;;;;;;5113078;27;20374;-59
2021/07/13 05:41:21;;;;;;;4.37;4.07;;;21.70;1.00;;;;;;5132968;27;20272;-58
2021/07/13 05:43:47;;;;;;;4.93;4.13;;;21.90;1.00;;;;;;5136315;27;20272;-58
2021/07/13 05:46:12;;;;;;;6.27;4.50;;;22.00;1.00;;;;;;5132952;27;20455;-57
2021/07/13 05:48:38;;;;;;;7.70;7.00;;;22.10;1.00;;;;;;5131656;27;20465;-59
2021/07/13 05:51:03;;;;;;;5.57;3.67;;;22.10;1.00;;;;;;5131254;27;20673;-58
2021/07/13 05:53:29;;;;;;;4.47;4.07;;;22.20;1.00;;;;;;5132762;27;20177;-58
2021/07/13 05:55:54;;;;;;;4.97;4.50;;;22.30;1.00;;;;;;5115233;27;20178;-59
2021/07/13 05:58:22;;;;;;;4.10;3.70;;;22.60;1.00;;;;;;5132689;27;20187;-59
2021/07/13 06:00:48;;;;;;;4.63;3.60;;;22.70;1.00;;;;;;5134035;27;20216;-58
2021/07/13 06:03:13;;;;;;;4.50;4.17;;;22.80;1.00;;;;;;5138883;27;20523;-58
2021/07/13 06:05:39;;;;;;;5.77;4.40;;;23.00;1.00;;;;;;5132899;27;20506;-58
2021/07/13 06:08:05;;;;;;;5.40;4.70;;;23.10;1.00;;;;;;5132557;27;20694;-58
2021/07/13 06:10:32;;;;;;;4.20;3.90;;;23.30;1.00;;;;;;5133591;27;20297;-58
2021/07/13 06:12:58;;;;;;;5.37;3.73;;;23.40;1.00;;;;;;5132029;27;20178;-58
2021/07/13 06:15:24;;;;;;;4.77;4.20;;;23.60;1.00;;;;;;5132357;27;20526;-58
2021/07/13 06:17:49;;;;;;;4.77;4.37;;;23.70;1.00;;;;;;5132089;27;20269;-57
2021/07/13 06:20:15;;;;;;;6.27;4.87;;;23.90;1.00;;;;;;5130297;27;20193;-58
2021/07/13 06:22:41;;;;;;;6.40;4.00;;;24.10;1.00;;;;;;5132884;27;20749;-57
2021/07/13 06:25:07;;;;;;;10.50;4.50;;;24.30;1.00;;;;;;5131091;27;20542;-59
2021/07/13 06:27:33;;;;;;;4.30;3.90;;;24.50;1.00;;;;;;5132527;27;20216;-57
2021/07/13 06:29:59;;;;;;;7.60;4.20;;;24.70;1.00;;;;;;5128782;27;20498;-59
2021/07/13 06:32:24;;;;;;;7.20;4.30;;;24.90;1.00;;;;;;5131002;27;20642;-59
2021/07/13 06:34:50;;;;;;;4.30;3.90;;;25.20;1.00;;;;;;5127276;27;20516;-59
2021/07/13 06:37:15;;;;;;;3.97;3.10;;;25.30;1.00;;;;;;5131976;27;20213;-58
2021/07/13 06:39:41;;;;;;;4.30;3.87;;;25.50;1.00;;;;;;5130490;27;20181;-57
2021/07/13 06:42:06;;;;;;;5.10;3.30;;;25.50;1.00;;;;;;5135562;27;20193;-58
2021/07/13 06:44:32;;;;;;;5.23;4.73;;;25.60;1.00;;;;;;5134447;27;20191;-58
2021/07/13 06:46:57;;;;;;;6.60;3.87;;;25.60;1.00;;;;;;5133658;27;20213;-58
2021/07/13 06:49:23;;;;;;;4.50;4.00;;;25.60;1.00;;;;;;5113727;27;20292;-58
2021/07/13 06:51:48;;;;;;;4.07;3.50;;;25.60;1.00;;;;;;5136673;27;20698;-58
2021/07/13 06:54:14;;;;;;;4.00;3.70;;;25.60;1.00;;;;;;5119757;27;20602;-58
2021/07/13 06:56:39;;;;;;;5.17;3.53;;;25.70;1.00;;;;;;5118086;27;20177;-57
2021/07/13 06:59:05;;;;;;;4.33;3.90;;;25.90;1.00;;;;;;5131904;27;20653;-58
2021/07/13 07:01:31;;;;;;;3.90;3.50;;;26.10;1.00;;;;;;5129484;27;20201;-58
2021/07/13 07:03:56;;;;;;;4.07;3.53;;;26.40;1.00;;;;;;5131483;27;20273;-60
2021/07/13 07:06:22;;;;;;;3.83;3.53;;;26.60;1.00;;;;;;5119625;27;20195;-57
2021/07/13 07:08:47;;;;;;;5.27;3.97;;;26.80;1.00;;;;;;5136373;27;20221;-58
2021/07/13 07:11:13;;;;;;;5.10;3.50;;;26.80;1.00;;;;;;5130284;27;20178;-59
2021/07/13 07:13:39;;;;;;;4.37;3.43;;;26.90;1.00;;;;;;5113477;27;20177;-58
2021/07/13 07:16:05;;;;;;;3.97;3.57;;;26.90;1.00;;;;;;5128046;27;20173;-59
2021/07/13 07:18:30;;;;;;;4.33;4.00;;;26.90;1.00;;;;;;5134521;27;20454;-58
2021/07/13 07:20:56;;;;;;;4.33;4.03;;;26.70;1.00;;;;;;5130812;27;20203;-58
2021/07/13 07:23:21;;;;;;;4.57;4.17;;;26.80;1.00;;;;;;5129187;27;20213;-58
2021/07/13 07:25:47;;;;;;;4.67;4.20;;;26.80;1.00;;;;;;5131688;27;20185;-59
2021/07/13 07:28:12;;;;;;;4.57;3.50;;;26.80;1.00;;;;;;5132722;27;20185;-58
2021/07/13 07:30:38;;;;;;;3.73;3.47;;;26.90;1.00;;;;;;5113057;27;20183;-57
2021/07/13 07:33:04;;;;;;;5.37;3.50;;;26.90;1.00;;;;;;5111687;27;20177;-65
2021/07/13 07:35:31;;;;;;;4.40;4.00;;;27.10;1.00;;;;;;5129599;27;20634;-60
2021/07/13 07:37:57;;;;;;;3.67;3.37;;;27.20;1.00;;;;;;5130367;27;20438;-58
2021/07/13 07:40:22;;;;;;;4.57;4.17;;;27.20;1.00;;;;;;5138289;27;21103;-59
2021/07/13 07:42:51;;;;;;;4.30;3.90;;;27.50;1.00;;;;;;5130767;27;20581;-59
2021/07/13 07:45:18;;;;;;;5.00;4.50;;;27.60;1.00;;;;;;5130653;27;20178;-59
2021/07/13 07:47:44;;;;;;;4.63;4.07;;;27.70;1.00;;;;;;5128883;27;20777;-58
2021/07/13 07:50:11;;;;;;;4.30;3.77;;;27.50;1.00;;;;;;5131361;27;20842;-57
2021/07/13 07:52:36;;;;;;;4.37;4.10;;;27.40;1.00;;;;;;5133656;27;20442;-58
2021/07/13 07:55:07;;;;;;;4.33;3.93;;;27.50;1.00;;;;;;5128481;27;20934;-58
2021/07/13 07:57:34;;;;;;;4.30;4.00;;;27.50;1.00;;;;;;5126742;27;20709;-58
2021/07/13 08:00:00;;;;;;;4.27;3.80;;;27.80;1.00;;;;;;5135821;27;20413;-59
2021/07/13 08:02:25;;;;;;;4.50;4.10;;;28.00;1.00;;;;;;5131281;27;20443;-59
2021/07/13 08:04:51;;;;;;;5.00;4.60;;;28.10;1.00;;;;;;5128798;27;20194;-55
2021/07/13 08:07:18;;;;;;;4.87;4.50;;;28.20;1.00;;;;;;5129373;27;20189;-55
2021/07/13 08:09:44;;;;;;;5.00;4.60;;;28.30;1.00;;;;;;5131267;27;20224;-57
2021/07/13 08:12:10;;;;;;;5.00;4.50;;;28.30;1.00;;;;;;5130684;27;20927;-55
2021/07/13 08:14:36;;;;;;;5.30;4.80;;;27.80;1.00;;;;;;5111297;27;20410;-55
2021/07/13 08:17:01;;;;;;;5.30;4.90;;;28.00;1.00;;;;;;5137254;27;20173;-54
2021/07/13 08:19:28;;;;;;;6.20;5.30;;;27.90;1.00;;;;;;5134813;27;20185;-55
2021/07/13 08:21:53;;;;;;;5.10;4.80;;;27.90;1.00;;;;;;5136321;27;20177;-56
2021/07/13 08:24:19;;;;;;;6.33;4.80;;;27.90;1.00;;;;;;5131149;27;20434;-54
2021/07/13 08:26:46;;;;;;;6.53;4.80;;;27.90;1.00;;;;;;5113235;27;20264;-54
2021/07/13 08:29:12;;;;;;;9.00;5.33;;;27.90;1.00;;;;;;5131424;27;20661;-54
2021/07/13 08:31:37;;;;;;;6.20;5.80;;;28.00;1.00;;;;;;5127635;27;20560;-55
2021/07/13 08:34:03;;;;;;;6.30;5.90;;;28.00;1.00;;;;;;5131868;27;20173;-55
2021/07/13 08:36:29;;;;;;;6.73;6.13;;;28.20;1.00;;;;;;5131369;27;20169;-55
2021/07/13 08:38:54;;;;;;;6.50;6.00;;;28.30;1.00;;;;;;5115828;27;20181;-56
2021/07/13 08:41:21;;;;;;;6.13;5.63;;;28.50;1.00;;;;;;5151856;27;20185;-55
2021/07/13 08:43:48;;;;;;;6.80;6.30;;;28.70;1.00;;;;;;5152160;27;20268;-55
2021/07/13 08:46:15;;;;;;;7.23;6.63;;;28.70;1.00;;;;;;5133642;27;20430;-56
2021/07/13 08:48:40;;;;;;;7.93;7.03;;;28.80;1.00;;;;;;5151706;27;20962;-55
2021/07/13 08:51:07;;;;;;;7.77;7.17;;;28.70;1.00;;;;;;5151916;27;20432;-54
2021/07/13 08:53:33;;;;;;;7.87;7.07;;;28.60;1.00;;;;;;5133301;27;20212;-56
2021/07/13 08:56:02;;;;;;;8.67;7.77;;;28.50;1.00;;;;;;5143667;27;20410;-56
2021/07/13 08:58:28;;;;;;;7.73;7.03;;;28.50;1.00;;;;;;5131091;27;20188;-55
2021/07/13 09:00:53;;;;;;;10.73;7.30;;;28.60;1.00;;;;;;5131179;27;20435;-56
2021/07/13 09:03:22;;;;;;;7.50;6.90;;;28.70;1.00;;;;;;5131198;27;20190;-54
2021/07/13 09:05:53;;;;;;;8.80;7.37;;;29.00;1.00;;;;;;5131041;27;20686;-54
2021/07/13 09:08:22;;;;;;;9.00;7.80;;;29.20;1.00;;;;;;5131320;27;20444;-55
2021/07/13 09:11:06;;;;;;;7.27;6.47;;;29.40;1.00;;;;;;5131111;27;20522;-55
2021/07/13 09:13:36;;;;;;;7.63;6.90;;;29.70;1.00;;;;;;5130923;27;20868;-55
2021/07/13 09:16:03;;;;;;;8.63;7.17;;;29.80;1.00;;;;;;5131216;27;20409;-55
2021/07/13 09:18:34;;;;;;;7.50;7.00;;;30.30;1.00;;;;;;5131054;27;20405;-56
2021/07/13 09:21:19;;;;;;;7.73;7.03;;;30.60;1.00;;;;;;5128196;27;20430;-55
2021/07/13 09:24:03;;;;;;;7.77;7.07;;;30.90;1.00;;;;;;5130776;27;20462;-56
2021/07/13 09:26:57;;;;;;;7.20;6.50;;;31.40;1.00;;;;;;5133198;27;20963;-56
2021/07/13 09:29:27;;;;;;;8.10;7.27;;;31.80;1.00;;;;;;5134857;27;20516;-55
2021/07/13 09:31:54;;;;;;;6.90;6.20;;;31.90;1.00;;;;;;5134744;27;20409;-55
2021/07/13 09:34:20;;;;;;;7.30;6.70;;;31.70;1.00;;;;;;5133337;27;20441;-54
2021/07/13 09:36:54;;;;;;;7.27;6.77;;;31.40;1.00;;;;;;5134829;27;20443;-54
2021/07/13 09:39:24;;;;;;;6.40;5.90;;;31.10;1.00;;;;;;5134695;27;20917;-55
2021/07/13 09:41:52;;;;;;;7.30;6.80;;;31.00;1.00;;;;;;5134408;27;20511;-57
2021/07/13 09:44:22;;;;;;;6.90;6.20;;;31.00;1.00;;;;;;5134639;27;20409;-54
2021/07/13 09:46:48;;;;;;;7.00;6.27;;;31.30;1.00;;;;;;5134293;27;20409;-56
2021/07/13 09:49:21;;;;;;;6.90;6.40;;;31.40;1.00;;;;;;5134505;27;20948;-56
2021/07/13 09:51:54;;;;;;;6.97;6.17;;;31.60;1.00;;;;;;5134055;27;20221;-56
2021/07/13 09:54:38;;;;;;;8.43;6.07;;;31.50;1.00;;;;;;5134484;27;20902;-56
2021/07/13 09:57:19;;;;;;;7.10;6.50;;;31.30;1.00;;;;;;5133187;27;20511;-55
2021/07/13 09:59:47;;;;;;;6.60;5.90;;;31.20;1.00;;;;;;5134277;27;20408;-57
2021/07/13 10:02:15;;;;;;;7.10;6.50;;;31.10;1.00;;;;;;5136704;27;20771;-56
2021/07/13 10:04:41;;;;;;;7.00;6.30;;;31.10;1.00;;;;;;5154848;27;20408;-55
2021/07/13 10:07:11;;;;;;;6.90;6.30;;;30.90;1.00;;;;;;5134095;27;20458;-56
2021/07/13 10:09:42;;;;;;;6.67;6.07;;;30.60;1.00;;;;;;5134116;27;20228;-54
2021/07/13 10:12:09;;;;;;;6.30;5.80;;;30.50;1.00;;;;;;5134175;27;20459;-55
2021/07/13 10:14:57;;;;;;;6.40;5.90;;;30.60;1.00;;;;;;5134140;27;20454;-55
2021/07/13 10:17:32;;;;;;;6.60;6.00;;;30.80;1.00;;;;;;5132807;27;20464;-55
2021/07/13 10:20:04;;;;;;;5.27;4.97;;;31.20;1.00;;;;;;5133703;27;20874;-56
2021/07/13 10:22:31;;;;;;;5.67;5.27;;;31.20;1.00;;;;;;5133809;27;20409;-56
2021/07/13 10:24:59;;;;;;;5.70;5.20;;;31.00;1.00;;;;;;5133672;27;20435;-56
2021/07/13 10:27:31;;;;;;;6.77;6.17;;;31.20;1.00;;;;;;5133619;27;20666;-56
2021/07/13 10:29:58;;;;;;;5.53;5.13;;;31.60;1.00;;;;;;5138556;27;20913;-55
2021/07/13 10:32:24;;;;;;;5.53;5.13;;;32.00;1.00;;;;;;5127859;27;20422;-55
2021/07/13 10:34:59;;;;;;;5.20;4.77;;;32.20;1.00;;;;;;5133544;27;20445;-56
2021/07/13 10:37:36;;;;;;;9.23;5.30;;;32.30;1.00;;;;;;5132307;27;20173;-56
2021/07/13 10:40:13;;;;;;;5.07;4.60;;;32.30;1.00;;;;;;5130734;27;20770;-55
2021/07/13 10:42:41;;;;;;;7.80;4.90;;;32.40;1.00;;;;;;5133668;27;20413;-55
2021/07/13 10:45:36;;;;;;;5.67;5.20;;;32.70;1.00;;;;;;5133282;27;20446;-55
2021/07/13 10:48:12;;;;;;;5.43;4.93;;;32.60;1.00;;;;;;5133414;27;20443;-57
2021/07/13 10:50:48;;;;;;;7.77;5.73;;;32.70;1.00;;;;;;5111256;28;20450;-56
2021/07/13 10:53:23;;;;;;;5.23;4.93;;;32.70;1.00;;;;;;5111344;28;20425;-55
2021/07/13 10:56:04;;;;;;;6.30;5.80;;;32.50;1.00;;;;;;5112704;28;20432;-57
2021/07/13 10:58:37;;;;;;;5.80;5.40;;;32.40;1.00;;;;;;5112351;28;20432;-54
2021/07/13 11:01:14;;;;;;;5.60;5.10;;;32.00;1.00;;;;;;5111304;28;20599;-55
2021/07/13 11:03:40;;;;;;;5.97;5.53;;;32.30;1.00;;;;;;5112491;28;20450;-55
2021/07/13 11:06:17;;;;;;;5.67;5.20;;;32.60;1.00;;;;;;5112245;28;20436;-57
2021/07/13 11:08:59;;;;;;;6.20;5.70;;;32.50;1.00;;;;;;5112272;28;20205;-57
2021/07/13 11:11:28;;;;;;;6.30;5.90;;;32.60;1.00;;;;;;5112101;28;20406;-55
2021/07/13 11:13:58;;;;;;;6.53;5.30;;;32.80;1.00;;;;;;5112241;28;20531;-57
2021/07/13 11:16:41;;;;;;;5.73;5.30;;;32.70;1.00;;;;;;5114801;27;20528;-57
2021/07/13 11:19:15;;;;;;;6.53;6.03;;;32.70;1.00;;;;;;5116100;27;20417;-57
2021/07/13 11:21:43;;;;;;;5.57;5.13;;;32.70;1.00;;;;;;5110696;28;20767;-56
2021/07/13 11:24:08;;;;;;;5.73;5.30;;;32.80;1.00;;;;;;5111933;28;20435;-56
2021/07/13 11:26:37;;;;;;;5.53;5.13;;;32.80;1.00;;;;;;5111938;28;20434;-56
2021/07/13 11:29:13;;;;;;;5.80;5.40;;;32.60;1.00;;;;;;5111866;28;20670;-56
2021/07/13 11:31:40;;;;;;;5.23;4.83;;;32.20;1.00;;;;;;5111894;28;20762;-55
2021/07/13 11:34:14;;;;;;;6.50;5.90;;;32.20;1.00;;;;;;5111884;27;20411;-56
2021/07/13 11:36:44;;;;;;;5.43;5.00;;;32.40;1.00;;;;;;5112224;28;20605;-54
2021/07/13 11:39:31;;;;;;;5.73;5.33;;;32.90;1.00;;;;;;5111533;28;20414;-57
2021/07/13 11:42:02;;;;;;;5.20;4.90;;;32.50;1.00;;;;;;5111350;28;20398;-56
2021/07/13 11:44:28;;;;;;;5.90;5.50;;;32.40;1.00;;;;;;5111347;28;20425;-56
2021/07/13 11:46:54;;;;;;;5.00;4.70;;;32.40;1.00;;;;;;5115620;27;20431;-56
2021/07/13 11:49:25;;;;;;;7.23;5.57;;;32.20;1.00;;;;;;5131551;27;20540;-55
2021/07/13 11:51:50;;;;;;;5.77;5.27;;;32.20;1.00;;;;;;5122793;27;20214;-56
2021/07/13 11:54:21;;;;;;;6.67;6.03;;;32.20;1.00;;;;;;5111492;28;20405;-55
2021/07/13 11:56:49;;;;;;;5.80;5.40;;;32.30;1.00;;;;;;5108774;28;20178;-56
2021/07/13 11:59:16;;;;;;;5.43;5.00;;;32.40;1.00;;;;;;5111283;28;20436;-55
2021/07/13 12:01:47;;;;;;;6.07;5.50;;;32.30;1.00;;;;;;5111588;28;20432;-56
2021/07/13 12:04:13;;;;;;;6.07;5.57;;;32.20;1.00;;;;;;5111407;28;20447;-57
2021/07/13 12:06:41;;;;;;;6.90;6.30;;;32.10;1.00;;;;;;5111152;28;20524;-56
2021/07/13 12:09:12;;;;;;;6.57;6.00;;;31.90;1.00;;;;;;5112997;27;21093;-56
2021/07/13 12:11:43;;;;;;;6.50;6.00;;;31.90;1.00;;;;;;5115478;27;20494;-57
2021/07/13 12:14:17;;;;;;;6.50;6.00;;;32.00;1.00;;;;;;5130284;27;20473;-56
2021/07/13 12:16:44;;;;;;;6.60;6.10;;;32.40;1.00;;;;;;5130631;27;20431;-55
2021/07/13 12:19:15;;;;;;;5.87;5.30;;;32.60;1.00;;;;;;5131794;27;20433;-55
2021/07/13 12:21:53;;;;;;;5.60;5.20;;;32.60;1.00;;;;;;5131504;27;20521;-56
2021/07/13 12:24:24;;;;;;;6.40;5.80;;;32.60;1.00;;;;;;5131880;27;20430;-55
2021/07/13 12:26:58;;;;;;;6.57;6.10;;;32.50;1.00;;;;;;5131619;27;20431;-55
2021/07/13 12:29:45;;;;;;;6.63;6.13;;;32.30;1.00;;;;;;5131784;27;20799;-56
2021/07/13 12:32:29;;;;;;;6.93;6.43;;;32.30;1.00;;;;;;5131514;27;20419;-56
2021/07/13 12:34:55;;;;;;;6.43;5.93;;;32.30;1.00;;;;;;5131590;27;20992;-55
2021/07/13 12:37:22;;;;;;;6.23;5.63;;;32.30;1.00;;;;;;5131719;27;20513;-56
2021/07/13 12:39:53;;;;;;;6.33;5.93;;;32.20;1.00;;;;;;5118766;27;20410;-55
2021/07/13 12:42:27;;;;;;;6.83;6.13;;;32.20;1.00;;;;;;5111058;28;20440;-56
2021/07/13 12:44:53;;;;;;;6.70;6.20;;;32.30;1.00;;;;;;5110615;28;20406;-56
2021/07/13 12:47:34;;;;;;;6.57;6.17;;;32.50;1.00;;;;;;5109779;28;20490;-54
2021/07/13 12:50:11;;;;;;;6.43;5.80;;;32.40;1.00;;;;;;5114612;27;20916;-55
2021/07/13 12:52:44;;;;;;;6.93;6.43;;;32.20;1.00;;;;;;5136682;27;20461;-55
2021/07/13 12:55:18;;;;;;;6.63;6.13;;;32.10;1.00;;;;;;5131350;27;20409;-56
2021/07/13 12:57:46;;;;;;;7.30;6.70;;;31.90;1.00;;;;;;5112876;27;20405;-56
2021/07/13 13:00:27;;;;;;;7.67;6.83;;;31.90;1.00;;;;;;5131318;27;20439;-56
2021/07/13 13:03:12;;;;;;;6.60;6.10;;;32.00;1.00;;;;;;5135092;27;20564;-56
2021/07/13 13:05:41;;;;;;;10.70;7.70;;;31.60;1.00;;;;;;5135434;27;20760;-57
2021/07/13 13:08:08;;;;;;;7.23;6.53;;;31.70;1.00;;;;;;5135243;27;20446;-56